createdAt,value
2023-03-04T00:00:07.813Z,0.41
2023-03-04T00:05:33.813Z,0.45
2023-03-04T00:10:39.511Z,0.45
2023-03-04T00:15:45.091Z,0.47
2023-03-04T00:20:50.863Z,0.48
2023-03-04T00:25:55.176Z,0.50
2023-03-04T00:30:59.045Z,0.53
2023-03-04T00:36:03.716Z,0.58
2023-03-04T00:41:07.556Z,0.62
2023-03-04T00:46:11.229Z,0.69
2023-03-04T00:51:15.029Z,0.76
2023-03-04T00:56:19.415Z,0.75
2023-03-04T01:01:23.309Z,0.77
2023-03-04T01:06:29.010Z,0.80
2023-03-04T01:11:32.923Z,0.83
2023-03-04T01:16:36.941Z,0.86
2023-03-04T01:21:41.311Z,0.87
2023-03-04T01:26:45.153Z,0.92
2023-03-04T01:31:48.769Z,0.94
2023-03-04T01:36:52.497Z,0.96
2023-03-04T01:41:56.480Z,0.97
2023-03-04T01:47:01.511Z,1.01
2023-03-04T01:52:05.284Z,1.05
2023-03-04T01:57:26.672Z,1.07
2023-03-04T02:02:30.565Z,1.13
2023-03-04T02:07:34.504Z,1.17
2023-03-04T02:12:38.729Z,1.18
2023-03-04T02:17:42.724Z,1.20
2023-03-04T02:23:14.168Z,1.19
2023-03-04T02:28:17.912Z,1.22
2023-03-04T02:33:21.740Z,1.22
2023-03-04T02:38:25.667Z,1.22
2023-03-04T02:43:29.419Z,1.24
2023-03-04T02:48:33.500Z,1.26
2023-03-04T02:53:39.133Z,1.27
2023-03-04T02:58:43.338Z,1.27
2023-03-04T03:03:47.391Z,1.27
2023-03-04T03:08:51.273Z,1.27
2023-03-04T03:13:57.122Z,1.28
2023-03-04T03:19:01.810Z,1.29
2023-03-04T03:24:06.016Z,1.30
2023-03-04T03:29:09.750Z,1.32
2023-03-04T03:34:13.836Z,1.33
2023-03-04T03:39:18.636Z,1.33
2023-03-04T03:44:25.156Z,1.33
2023-03-04T03:49:28.869Z,1.32
2023-03-04T03:54:32.496Z,1.32
2023-03-04T03:59:36.427Z,1.33
2023-03-04T04:04:40.163Z,1.35
2023-03-04T04:09:44.973Z,1.38
2023-03-04T04:14:48.826Z,1.40
2023-03-04T04:19:52.527Z,1.41
2023-03-04T04:24:56.154Z,1.41
2023-03-04T04:30:00.195Z,1.44
2023-03-04T04:35:04.406Z,1.45
2023-03-04T04:40:08.915Z,1.49
2023-03-04T04:45:12.650Z,1.50
2023-03-04T04:50:16.642Z,1.53
2023-03-04T04:55:21.067Z,1.59
2023-03-04T05:00:25.221Z,1.57
2023-03-04T05:05:29.661Z,1.60
2023-03-04T05:10:34.406Z,1.60
2023-03-04T05:15:39.729Z,1.62
2023-03-04T05:20:43.688Z,1.67
2023-03-04T05:25:48.147Z,1.67
2023-03-04T05:30:51.897Z,1.71
2023-03-04T05:35:55.644Z,1.76
2023-03-04T05:41:04.732Z,1.82
2023-03-04T05:46:09.407Z,1.83
2023-03-04T05:51:13.326Z,1.85
2023-03-04T05:56:19.950Z,1.90
2023-03-04T06:01:24.100Z,1.94
2023-03-04T06:06:27.842Z,1.98
2023-03-04T06:11:31.675Z,2.00
2023-03-04T06:16:35.474Z,2.02
2023-03-04T06:21:39.321Z,2.04
2023-03-04T06:26:43.012Z,2.07
2023-03-04T06:31:46.829Z,2.11
2023-03-04T06:36:50.604Z,2.13
2023-03-04T06:41:54.283Z,2.18
2023-03-04T06:46:58.199Z,2.21
2023-03-04T06:52:02.653Z,2.22
2023-03-04T06:57:07.474Z,2.22
2023-03-04T07:02:13.136Z,2.25
2023-03-04T07:07:17.360Z,2.28
2023-03-04T07:12:21.095Z,2.30
2023-03-04T07:17:24.919Z,2.31
2023-03-04T07:22:28.624Z,2.32
2023-03-04T07:27:32.847Z,2.36
2023-03-04T07:32:36.575Z,2.40
2023-03-04T07:37:41.776Z,2.44
2023-03-04T07:42:50.867Z,2.47
2023-03-04T07:47:54.697Z,2.52
2023-03-04T07:52:58.541Z,2.59
2023-03-04T07:58:03.528Z,2.66
2023-03-04T08:03:07.462Z,2.72
2023-03-04T08:08:12.126Z,2.79
2023-03-04T08:13:16.323Z,2.81
2023-03-04T08:18:21.793Z,2.78
2023-03-04T08:23:28.564Z,2.76
2023-03-04T08:28:32.668Z,2.79
2023-03-04T08:33:37.996Z,2.83
2023-03-04T08:38:42.688Z,2.88
2023-03-04T08:43:47.483Z,2.95
2023-03-04T08:48:51.129Z,3.06
2023-03-04T08:53:54.921Z,3.13
2023-03-04T08:58:59.529Z,3.15
2023-03-04T09:04:03.123Z,3.17
2023-03-04T09:09:07.007Z,3.20
2023-03-04T09:14:10.783Z,3.26
2023-03-04T09:19:15.025Z,3.33
2023-03-04T09:24:18.550Z,3.39
2023-03-04T09:29:23.026Z,3.50
2023-03-04T09:34:27.965Z,3.56
2023-03-04T09:39:32.597Z,3.61
2023-03-04T09:44:43.822Z,3.67
2023-03-04T09:50:08.824Z,3.72
2023-03-04T09:55:36.938Z,3.71
2023-03-04T10:01:05.233Z,3.70
2023-03-04T10:06:13.852Z,3.68
2023-03-04T10:11:25.655Z,3.72
2023-03-04T10:16:53.922Z,3.82
2023-03-04T10:21:57.917Z,4.02
2023-03-04T10:27:07.722Z,4.14
2023-03-04T10:32:20.129Z,4.29
2023-03-04T10:37:23.978Z,4.47
2023-03-04T10:42:30.622Z,4.53
2023-03-04T10:47:35.687Z,4.49
2023-03-04T10:52:48.123Z,4.60
2023-03-04T10:57:57.796Z,4.73
2023-03-04T11:03:27.891Z,4.77
2023-03-04T11:08:33.011Z,4.78
2023-03-04T11:13:36.723Z,4.75
2023-03-04T11:18:53.878Z,4.71
2023-03-04T11:24:29.147Z,4.75
2023-03-04T11:29:40.061Z,4.75
2023-03-04T11:34:57.321Z,4.65
2023-03-04T11:40:40.337Z,4.61
2023-03-04T11:46:30.265Z,4.73
2023-03-04T11:52:03.557Z,5.09
2023-03-04T11:57:13.923Z,5.39
2023-03-04T12:02:23.160Z,5.57
2023-03-04T12:08:08.266Z,5.60
2023-03-04T12:13:50.807Z,5.66
2023-03-04T12:49:21.053Z,6.55
2023-03-04T13:00:36.332Z,6.28
2023-03-04T13:06:04.126Z,6.14
2023-03-04T13:11:26.578Z,5.94
2023-03-04T13:16:39.462Z,5.68
2023-03-04T13:21:50.093Z,5.58
2023-03-04T13:26:53.766Z,5.60
2023-03-04T13:32:00.640Z,5.64
2023-03-04T13:37:30.782Z,5.70
2023-03-04T13:42:45.213Z,5.82
2023-03-04T13:47:49.350Z,6.05
2023-03-04T13:52:54.441Z,6.15
2023-03-04T13:57:58.382Z,6.13
2023-03-04T14:03:18.585Z,6.07
2023-03-04T14:08:26.223Z,5.99
2023-03-04T14:13:30.103Z,5.99
2023-03-04T14:18:35.236Z,6.04
2023-03-04T14:23:39.264Z,5.98
2023-03-04T14:28:48.669Z,5.90
2023-03-04T14:34:00.276Z,5.83
2023-03-04T14:39:08.193Z,5.84
2023-03-04T14:44:36.329Z,5.80
2023-03-04T14:49:41.389Z,5.68
2023-03-04T14:55:01.762Z,5.41
2023-03-04T15:00:25.873Z,5.01
2023-03-04T15:05:50.022Z,4.84
2023-03-04T15:11:02.097Z,4.83
2023-03-04T15:16:07.594Z,4.89
2023-03-04T15:21:20.434Z,4.94
2023-03-04T15:26:26.044Z,4.94
2023-03-04T15:31:31.197Z,4.95
2023-03-04T15:36:35.047Z,4.93
2023-03-04T15:41:38.871Z,4.93
2023-03-04T15:46:43.147Z,4.93
2023-03-04T15:51:50.771Z,4.98
2023-03-04T15:56:59.191Z,5.02
2023-03-04T16:02:04.395Z,5.04
2023-03-04T16:07:08.324Z,5.06
2023-03-04T16:12:15.036Z,5.09
2023-03-04T16:17:20.419Z,5.10
2023-03-04T16:22:30.748Z,5.06
2023-03-04T16:27:38.535Z,5.02
2023-03-04T16:32:42.813Z,5.01
2023-03-04T16:37:48.195Z,5.02
2023-03-04T16:42:54.441Z,5.03
2023-03-04T16:47:58.817Z,5.03
2023-03-04T16:53:05.905Z,5.01
2023-03-04T16:58:10.470Z,5.00
2023-03-04T17:03:16.940Z,4.97
2023-03-04T17:08:23.139Z,4.94
2023-03-04T17:13:29.708Z,4.89
2023-03-04T17:18:36.118Z,4.86
2023-03-04T17:23:40.672Z,4.81
2023-03-04T17:28:46.152Z,4.78
2023-03-04T17:33:51.222Z,4.74
2023-03-04T17:38:57.528Z,4.71
2023-03-04T17:44:02.688Z,4.68
2023-03-04T17:49:07.367Z,4.65
2023-03-04T17:54:12.962Z,4.60
2023-03-04T17:59:20.457Z,4.55
2023-03-04T18:04:25.337Z,4.52
2023-03-04T18:09:29.957Z,4.49
2023-03-04T18:14:38.170Z,4.47
2023-03-04T18:19:43.983Z,4.46
2023-03-04T18:24:49.091Z,4.45
2023-03-04T18:29:55.355Z,4.41
2023-03-04T18:35:02.965Z,4.39
2023-03-04T18:40:09.721Z,4.38
2023-03-04T18:45:18.431Z,4.35
2023-03-04T18:50:26.247Z,4.35
2023-03-04T18:55:33.774Z,4.36
2023-03-04T19:00:41.176Z,4.37
2023-03-04T19:05:47.858Z,4.36
2023-03-04T19:10:53.408Z,4.19
2023-03-04T19:16:00.406Z,3.96
2023-03-04T19:28:20.045Z,3.72
2023-03-04T19:33:28.428Z,3.68
2023-03-04T19:38:37.321Z,3.65
2023-03-04T19:43:44.875Z,3.61
2023-03-04T19:48:55.849Z,3.58
2023-03-04T20:00:38.083Z,3.48
2023-03-04T20:05:47.592Z,3.44
2023-03-04T20:10:55.671Z,3.41
2023-03-04T20:16:04.273Z,3.39
2023-03-04T20:21:13.285Z,3.36
2023-03-04T20:26:23.173Z,3.34
2023-03-04T20:31:32.393Z,3.29
2023-03-04T20:36:39.730Z,3.25
2023-03-04T20:41:46.616Z,3.20
2023-03-04T20:46:52.838Z,3.16
2023-03-04T20:52:03.867Z,3.13
2023-03-04T20:57:11.081Z,3.07
2023-03-04T21:02:19.026Z,3.03
2023-03-04T21:07:25.337Z,3.01
2023-03-04T21:12:30.683Z,2.97
2023-03-04T21:17:35.348Z,2.93
2023-03-04T21:22:40.028Z,2.88
2023-03-04T21:27:46.553Z,2.82
2023-03-04T21:32:51.666Z,2.76
2023-03-04T21:37:57.334Z,2.71
2023-03-04T21:43:02.295Z,2.68
2023-03-04T21:48:08.902Z,2.66
2023-03-04T21:53:13.408Z,2.64
2023-03-04T21:58:18.109Z,2.62
2023-03-04T22:03:23.563Z,2.60
2023-03-04T22:08:28.246Z,2.61
2023-03-04T22:13:33.746Z,2.62
2023-03-04T22:18:41.665Z,2.60
2023-03-04T22:23:47.161Z,2.58
2023-03-04T22:28:50.966Z,2.54
2023-03-04T22:33:54.924Z,2.49
2023-03-04T22:38:58.897Z,2.45
2023-03-04T22:44:06.419Z,2.42
2023-03-04T22:49:13.510Z,2.40
2023-03-04T22:54:19.041Z,2.35
2023-03-04T22:59:23.346Z,2.30
2023-03-04T23:04:27.883Z,2.25
2023-03-04T23:09:32.321Z,2.19
2023-03-04T23:14:37.776Z,2.15
2023-03-04T23:19:41.579Z,2.10
2023-03-04T23:24:45.368Z,2.04
2023-03-04T23:29:50.294Z,1.99
2023-03-04T23:34:55.752Z,1.94
2023-03-04T23:39:59.329Z,1.90
2023-03-04T23:45:06.145Z,1.87
2023-03-04T23:50:12.502Z,1.84
2023-03-04T23:55:20.400Z,1.80
